createdAt,value
2019-05-29T00:00:02.840Z,2.30
2019-05-29T00:02:31.233Z,3.37
2019-05-29T00:04:59.708Z,7.83
2019-05-29T00:07:28.174Z,4.80
2019-05-29T00:09:56.580Z,7.17
2019-05-29T00:12:24.980Z,5.87
2019-05-29T00:14:53.512Z,4.80
2019-05-29T00:17:21.935Z,5.90
2019-05-29T00:19:50.324Z,7.47
2019-05-29T00:22:18.862Z,3.20
2019-05-29T00:24:47.258Z,6.63
2019-05-29T00:27:15.733Z,7.10
2019-05-29T00:29:44.264Z,5.43
2019-05-29T00:32:13.509Z,4.43
2019-05-29T00:34:42.924Z,4.13
2019-05-29T00:37:12.488Z,5.93
2019-05-29T00:39:41.303Z,6.83
2019-05-29T00:42:11.014Z,3.90
2019-05-29T00:44:39.575Z,3.53
2019-05-29T00:47:08.088Z,4.93
2019-05-29T00:49:36.571Z,5.37
2019-05-29T00:52:05.038Z,4.90
2019-05-29T00:54:33.436Z,3.20
2019-05-29T00:57:01.859Z,9.17
2019-05-29T00:59:30.317Z,6.53
2019-05-29T01:01:58.820Z,7.30
2019-05-29T01:04:27.280Z,5.27
2019-05-29T01:06:55.814Z,3.83
2019-05-29T01:09:24.220Z,3.93
2019-05-29T01:11:52.633Z,2.60
2019-05-29T01:14:21.465Z,3.63
2019-05-29T01:16:49.960Z,5.40
2019-05-29T01:19:27.465Z,3.30
2019-05-29T01:21:58.584Z,4.10
2019-05-29T01:24:27.256Z,2.50
2019-05-29T01:26:55.727Z,4.50
2019-05-29T01:29:24.128Z,5.40
2019-05-29T01:31:52.621Z,3.97
2019-05-29T01:34:22.016Z,5.23
2019-05-29T01:36:52.300Z,4.93
2019-05-29T01:39:21.372Z,5.03
2019-05-29T01:41:49.840Z,5.90
2019-05-29T01:44:19.319Z,5.57
2019-05-29T01:46:47.828Z,3.83
2019-05-29T01:49:17.799Z,8.00
2019-05-29T01:51:46.304Z,3.97
2019-05-29T01:54:15.485Z,5.23
2019-05-29T01:56:44.027Z,5.47
2019-05-29T01:59:12.442Z,6.00
2019-05-29T02:01:40.989Z,6.33
2019-05-29T02:04:09.448Z,5.40
2019-05-29T02:06:37.968Z,6.83
2019-05-29T02:09:06.953Z,6.03
2019-05-29T02:11:35.406Z,3.00
2019-05-29T02:14:03.813Z,7.60
2019-05-29T02:16:32.218Z,5.33
2019-05-29T02:19:00.752Z,6.27
2019-05-29T02:21:29.194Z,3.20
2019-05-29T02:23:58.007Z,6.37
2019-05-29T02:26:26.601Z,8.83
2019-05-29T02:28:55.006Z,8.80
2019-05-29T02:31:24.710Z,3.83
2019-05-29T02:33:53.830Z,7.03
2019-05-29T02:36:24.334Z,7.50
2019-05-29T02:38:53.549Z,4.50
2019-05-29T02:41:24.130Z,7.33
2019-05-29T02:43:52.196Z,4.90
2019-05-29T02:46:21.705Z,6.47
2019-05-29T02:48:50.771Z,9.00
2019-05-29T02:51:19.769Z,4.53
2019-05-29T02:53:48.252Z,3.57
2019-05-29T02:56:16.709Z,8.40
2019-05-29T02:58:45.549Z,4.80
2019-05-29T03:01:13.954Z,6.50
2019-05-29T03:03:42.482Z,3.43
2019-05-29T03:06:11.265Z,5.00
2019-05-29T03:08:39.814Z,4.23
2019-05-29T03:11:08.286Z,10.33
2019-05-29T03:13:36.674Z,2.73
2019-05-29T03:16:11.488Z,4.60
2019-05-29T03:18:35.340Z,6.87
2019-05-29T03:21:03.788Z,5.60
2019-05-29T03:23:33.959Z,5.43
2019-05-29T03:26:02.448Z,5.43
2019-05-29T03:28:32.481Z,6.37
2019-05-29T03:31:01.061Z,4.40
2019-05-29T03:33:36.061Z,3.70
2019-05-29T03:35:59.562Z,7.63
2019-05-29T03:38:28.280Z,5.87
2019-05-29T03:40:57.937Z,4.80
2019-05-29T03:43:26.398Z,6.50
2019-05-29T03:45:54.803Z,5.53
2019-05-29T03:48:23.408Z,6.13
2019-05-29T03:50:51.881Z,6.30
2019-05-29T03:53:20.359Z,8.53
2019-05-29T03:55:48.829Z,3.20
2019-05-29T03:58:17.306Z,5.90
2019-05-29T04:00:48.276Z,4.93
2019-05-29T04:03:15.973Z,10.57
2019-05-29T04:05:44.388Z,7.17
2019-05-29T04:08:12.794Z,3.33
2019-05-29T04:10:41.253Z,4.07
2019-05-29T04:13:09.729Z,4.57
2019-05-29T04:15:38.858Z,6.40
2019-05-29T04:18:08.020Z,5.17
2019-05-29T04:20:38.705Z,4.47
2019-05-29T04:23:07.649Z,5.87
2019-05-29T04:25:41.738Z,5.43
2019-05-29T04:28:07.877Z,5.07
2019-05-29T04:30:36.602Z,6.07
2019-05-29T04:33:05.734Z,3.40
2019-05-29T04:35:34.658Z,4.30
2019-05-29T04:38:03.289Z,6.47
2019-05-29T04:40:32.722Z,4.30
2019-05-29T04:43:02.431Z,2.90
2019-05-29T04:45:30.931Z,7.40
2019-05-29T04:47:59.483Z,6.30
2019-05-29T04:50:29.169Z,6.33
2019-05-29T04:52:57.762Z,6.40
2019-05-29T04:55:26.232Z,7.57
2019-05-29T04:57:54.706Z,3.03
2019-05-29T05:00:23.258Z,8.10
2019-05-29T05:02:51.730Z,6.50
2019-05-29T05:05:20.138Z,5.00
2019-05-29T05:07:48.651Z,2.47
2019-05-29T05:10:20.374Z,5.80
2019-05-29T05:12:48.816Z,7.80
2019-05-29T05:15:18.918Z,4.90
2019-05-29T05:17:48.056Z,9.50
2019-05-29T05:20:16.421Z,7.83
2019-05-29T05:22:44.838Z,10.57
2019-05-29T05:25:13.302Z,7.67
2019-05-29T05:27:41.707Z,6.00
2019-05-29T05:30:10.105Z,8.47
2019-05-29T05:32:38.983Z,7.50
2019-05-29T05:35:14.199Z,5.63
2019-05-29T05:37:41.031Z,6.63
2019-05-29T05:40:09.538Z,7.53
2019-05-29T05:42:38.978Z,6.77
2019-05-29T05:45:08.632Z,7.30
2019-05-29T05:47:50.378Z,4.47
2019-05-29T05:50:07.479Z,7.93
2019-05-29T05:52:35.949Z,3.60
2019-05-29T05:55:05.740Z,5.03
2019-05-29T05:57:34.150Z,2.93
2019-05-29T06:00:02.688Z,9.63
2019-05-29T06:02:31.670Z,6.37
2019-05-29T06:05:00.512Z,3.90
2019-05-29T06:07:28.998Z,8.10
2019-05-29T06:09:57.476Z,11.37
2019-05-29T06:12:29.048Z,8.73
2019-05-29T06:14:57.440Z,9.00
2019-05-29T06:17:25.977Z,6.63
2019-05-29T06:19:54.368Z,7.87
2019-05-29T06:22:22.780Z,6.20
2019-05-29T06:24:51.304Z,2.60
2019-05-29T06:27:19.706Z,6.30
2019-05-29T06:29:48.179Z,8.07
2019-05-29T06:32:16.703Z,3.90
2019-05-29T06:34:45.058Z,4.37
2019-05-29T06:37:13.474Z,12.00
2019-05-29T06:39:42.023Z,222.53
2019-05-29T06:42:10.501Z,224.37
2019-05-29T06:44:41.003Z,216.00
2019-05-29T06:47:10.329Z,222.93
2019-05-29T06:49:40.032Z,220.50
2019-05-29T06:52:09.338Z,220.30
2019-05-29T06:54:37.921Z,223.53
2019-05-29T06:57:06.278Z,208.03
2019-05-29T06:59:36.049Z,219.10
2019-05-29T07:02:04.638Z,214.50
2019-05-29T07:04:33.070Z,222.57
2019-05-29T07:07:01.548Z,232.20
2019-05-29T07:09:30.208Z,217.40
2019-05-29T07:11:58.707Z,224.43
2019-05-29T07:14:27.208Z,216.17
2019-05-29T07:16:56.517Z,221.10
2019-05-29T07:19:38.946Z,179.77
2019-05-29T07:21:56.220Z,165.13
2019-05-29T07:24:24.836Z,205.47
2019-05-29T07:26:53.316Z,158.33
2019-05-29T07:29:21.867Z,211.23
2019-05-29T07:31:50.341Z,219.30
2019-05-29T07:34:18.773Z,246.60
2019-05-29T07:36:48.220Z,218.53
2019-05-29T07:39:16.823Z,225.47
2019-05-29T07:41:45.769Z,220.03
2019-05-29T07:44:14.344Z,222.43
2019-05-29T07:46:45.142Z,224.27
2019-05-29T07:49:14.034Z,223.37
2019-05-29T07:51:43.404Z,228.03
2019-05-29T07:54:12.675Z,221.87
2019-05-29T07:56:42.223Z,216.80
2019-05-29T07:59:11.037Z,223.67
2019-05-29T08:01:40.645Z,231.77
2019-05-29T08:04:09.273Z,285.50
2019-05-29T08:06:38.855Z,224.83
2019-05-29T08:09:08.615Z,164.00
2019-05-29T08:11:37.114Z,28.00
2019-05-29T08:14:05.600Z,100.80
2019-05-29T08:16:34.117Z,107.23
2019-05-29T08:19:02.530Z,227.23
2019-05-29T08:21:31.006Z,50.93
2019-05-29T08:23:59.550Z,84.43
2019-05-29T08:26:28.091Z,40.50
2019-05-29T08:28:56.595Z,63.13
2019-05-29T08:31:25.054Z,202.03
2019-05-29T08:33:53.465Z,48.40
2019-05-29T08:36:21.935Z,199.57
2019-05-29T08:38:51.548Z,224.00
2019-05-29T08:41:20.371Z,199.57
2019-05-29T08:43:49.009Z,38.83
2019-05-29T08:46:17.470Z,36.83
2019-05-29T08:48:45.988Z,200.47
2019-05-29T08:51:15.488Z,78.97
2019-05-29T08:53:44.295Z,61.80
2019-05-29T08:56:12.794Z,39.90
2019-05-29T08:58:42.900Z,233.43
2019-05-29T09:01:11.619Z,191.90
2019-05-29T09:03:40.033Z,195.27
2019-05-29T09:06:10.391Z,166.43
2019-05-29T09:08:38.833Z,232.97
2019-05-29T09:11:07.320Z,223.43
2019-05-29T09:13:35.874Z,156.03
2019-05-29T09:16:04.428Z,212.60
2019-05-29T09:18:32.914Z,83.33
2019-05-29T09:21:03.738Z,66.30
2019-05-29T09:23:31.536Z,104.97
2019-05-29T09:26:13.655Z,198.93
2019-05-29T09:28:29.134Z,226.33
2019-05-29T09:30:57.656Z,187.73
2019-05-29T09:33:26.174Z,132.40
2019-05-29T09:35:54.662Z,84.23
2019-05-29T09:38:23.290Z,208.37
2019-05-29T09:40:52.843Z,103.10
2019-05-29T09:43:26.509Z,234.93
2019-05-29T09:45:51.805Z,227.10
2019-05-29T09:48:24.848Z,231.77
2019-05-29T09:50:50.922Z,168.00
2019-05-29T09:53:21.308Z,171.63
2019-05-29T09:55:49.792Z,241.30
2019-05-29T09:58:18.329Z,233.57
2019-05-29T10:00:47.276Z,159.87
2019-05-29T10:03:15.760Z,144.17
2019-05-29T10:05:44.184Z,32.00
2019-05-29T10:08:12.796Z,14.90
2019-05-29T10:10:41.344Z,124.63
2019-05-29T10:13:09.905Z,163.63
2019-05-29T10:15:38.448Z,80.80
2019-05-29T10:18:13.277Z,160.83
2019-05-29T10:20:37.021Z,87.90
2019-05-29T10:23:05.603Z,59.00
2019-05-29T10:25:34.098Z,29.13
2019-05-29T10:28:05.957Z,32.17
2019-05-29T10:30:32.878Z,66.30
2019-05-29T10:33:01.578Z,18.50
2019-05-29T10:35:30.034Z,14.67
2019-05-29T10:37:58.643Z,8.47
2019-05-29T10:40:27.070Z,182.13
2019-05-29T10:42:55.576Z,150.63
2019-05-29T10:45:24.173Z,20.30
2019-05-29T10:47:53.985Z,75.77
2019-05-29T10:50:22.540Z,232.23
2019-05-29T10:52:52.053Z,220.03
2019-05-29T10:55:23.013Z,100.87
2019-05-29T10:57:53.102Z,86.47
2019-05-29T11:00:21.981Z,29.90
2019-05-29T11:02:53.005Z,11.10
2019-05-29T11:05:20.462Z,43.50
2019-05-29T11:07:49.683Z,144.53
2019-05-29T11:10:18.767Z,225.27
2019-05-29T11:12:48.350Z,206.00
2019-05-29T11:15:21.509Z,226.47
2019-05-29T11:17:48.912Z,190.33
2019-05-29T11:20:17.941Z,237.87
2019-05-29T11:22:47.506Z,117.47
2019-05-29T11:25:22.414Z,238.43
2019-05-29T11:27:46.228Z,229.40
2019-05-29T11:30:15.047Z,231.57
2019-05-29T11:32:47.291Z,232.57
2019-05-29T11:35:13.566Z,215.73
2019-05-29T11:37:42.130Z,235.60
2019-05-29T11:40:13.161Z,235.73
2019-05-29T11:42:41.651Z,238.60
2019-05-29T11:45:10.512Z,233.87
2019-05-29T11:47:39.142Z,232.13
2019-05-29T11:50:19.346Z,242.73
2019-05-29T11:52:43.428Z,356.27
2019-05-29T11:55:11.349Z,252.93
2019-05-29T11:57:40.821Z,241.93
2019-05-29T12:00:19.558Z,237.77
2019-05-29T12:02:42.288Z,228.93
2019-05-29T12:05:10.763Z,240.73
2019-05-29T12:07:39.458Z,231.93
2019-05-29T12:10:08.269Z,236.67
2019-05-29T12:12:37.204Z,238.70
2019-05-29T12:15:13.234Z,243.73
2019-05-29T12:17:38.195Z,241.80
2019-05-29T12:20:26.458Z,239.23
2019-05-29T12:22:37.696Z,232.27
2019-05-29T12:25:06.258Z,241.03
2019-05-29T12:27:34.752Z,238.37
2019-05-29T12:30:04.064Z,239.90
2019-05-29T12:32:32.612Z,229.10
2019-05-29T12:35:01.210Z,247.70
2019-05-29T12:37:29.891Z,233.40
2019-05-29T12:39:59.937Z,238.13
2019-05-29T12:42:28.496Z,238.03
2019-05-29T12:44:57.593Z,282.07
2019-05-29T12:47:26.191Z,236.10
2019-05-29T12:49:55.495Z,148.80
2019-05-29T12:52:24.144Z,128.23
2019-05-29T12:54:55.894Z,259.00
2019-05-29T12:57:24.508Z,230.07
2019-05-29T12:59:54.147Z,239.90
2019-05-29T13:02:22.621Z,225.80
2019-05-29T13:05:06.946Z,266.03
2019-05-29T13:07:21.448Z,243.80
2019-05-29T13:09:50.362Z,235.20
2019-05-29T13:12:18.853Z,242.57
2019-05-29T13:14:47.420Z,255.93
2019-05-29T13:17:15.898Z,243.27
2019-05-29T13:19:44.403Z,235.47
2019-05-29T13:22:12.938Z,238.10
2019-05-29T13:24:41.426Z,245.73
2019-05-29T13:27:10.018Z,241.80
2019-05-29T13:29:38.569Z,250.60
2019-05-29T13:32:07.659Z,190.73
2019-05-29T13:34:36.342Z,257.03
2019-05-29T13:37:09.188Z,252.53
2019-05-29T13:39:35.050Z,234.73
2019-05-29T13:42:08.915Z,245.00
2019-05-29T13:44:33.804Z,248.23
2019-05-29T13:47:03.906Z,249.23
2019-05-29T13:49:32.766Z,245.10
2019-05-29T13:52:04.399Z,254.20
2019-05-29T13:54:31.941Z,252.93
2019-05-29T13:57:01.318Z,243.83
2019-05-29T13:59:30.641Z,243.10
2019-05-29T14:02:00.306Z,238.53
2019-05-29T14:04:29.017Z,235.43
2019-05-29T14:06:58.564Z,242.23
2019-05-29T14:09:27.096Z,258.33
2019-05-29T14:11:55.657Z,253.23
2019-05-29T14:14:24.193Z,19.97
2019-05-29T14:16:52.835Z,231.97
2019-05-29T14:19:21.420Z,233.60
2019-05-29T14:21:49.960Z,230.83
2019-05-29T14:24:28.692Z,237.50
2019-05-29T14:26:48.645Z,225.07
2019-05-29T14:29:17.434Z,243.53
2019-05-29T14:31:46.001Z,238.67
2019-05-29T14:34:14.609Z,229.93
2019-05-29T14:36:43.236Z,203.23
2019-05-29T14:39:12.117Z,225.20
2019-05-29T14:41:40.712Z,172.70
2019-05-29T14:44:09.988Z,243.03
2019-05-29T14:46:38.751Z,237.53
2019-05-29T14:49:08.340Z,237.87
2019-05-29T14:51:37.025Z,179.67
2019-05-29T14:54:06.847Z,213.20
2019-05-29T14:56:35.583Z,239.67
2019-05-29T14:59:05.598Z,216.83
2019-05-29T15:01:34.649Z,239.23
2019-05-29T15:04:05.381Z,230.73
2019-05-29T15:06:34.141Z,218.80
2019-05-29T15:09:03.601Z,240.87
2019-05-29T15:11:33.646Z,247.07
2019-05-29T15:14:02.160Z,233.23
2019-05-29T15:16:30.843Z,237.03
2019-05-29T15:18:59.373Z,135.23
2019-05-29T15:21:27.916Z,245.53
2019-05-29T15:23:56.375Z,236.60
2019-05-29T15:26:24.927Z,238.67
2019-05-29T15:28:53.611Z,242.63
2019-05-29T15:31:22.044Z,251.53
2019-05-29T15:33:50.486Z,240.63
2019-05-29T15:36:19.051Z,256.37
2019-05-29T15:38:47.545Z,240.07
2019-05-29T15:41:16.905Z,87.00
2019-05-29T15:43:49.192Z,188.77
2019-05-29T15:46:16.462Z,243.40
2019-05-29T15:48:45.926Z,235.87
2019-05-29T15:51:15.131Z,239.47
2019-05-29T15:53:43.843Z,237.73
2019-05-29T15:56:23.714Z,242.73
2019-05-29T15:58:42.623Z,240.97
2019-05-29T16:01:11.686Z,234.77
2019-05-29T16:03:40.354Z,107.40
2019-05-29T16:06:10.372Z,32.33
2019-05-29T16:08:38.864Z,97.50
2019-05-29T16:11:08.592Z,100.63
2019-05-29T16:13:37.305Z,129.43
2019-05-29T16:16:05.813Z,69.90
2019-05-29T16:18:34.305Z,28.90
2019-05-29T16:21:02.843Z,9.33
2019-05-29T16:23:35.863Z,12.07
2019-05-29T16:26:01.474Z,9.80
2019-05-29T16:28:30.044Z,10.10
2019-05-29T16:30:58.689Z,6.73
2019-05-29T16:33:27.218Z,8.10
2019-05-29T16:35:55.766Z,12.03
2019-05-29T16:38:24.414Z,16.80
2019-05-29T16:40:53.214Z,22.75
2019-05-29T16:43:22.385Z,10.90
2019-05-29T16:45:51.056Z,11.38
2019-05-29T16:48:20.610Z,11.90
2019-05-29T16:50:49.383Z,10.90
2019-05-29T16:53:18.910Z,12.15
2019-05-29T16:55:53.739Z,11.28
2019-05-29T16:58:19.605Z,18.23
2019-05-29T17:00:47.834Z,8.70
2019-05-29T17:03:17.340Z,201.10
2019-05-29T17:05:46.377Z,176.93
2019-05-29T17:08:16.087Z,195.27
2019-05-29T17:10:44.695Z,254.73
2019-05-29T17:13:14.548Z,266.73
2019-05-29T17:15:43.307Z,246.33
2019-05-29T17:18:12.101Z,246.00
2019-05-29T17:20:45.823Z,253.60
2019-05-29T17:23:15.129Z,240.87
2019-05-29T17:25:44.103Z,240.77
2019-05-29T17:28:12.600Z,244.57
2019-05-29T17:30:42.394Z,233.83
2019-05-29T17:33:11.148Z,246.50
2019-05-29T17:35:39.632Z,245.97
2019-05-29T17:38:08.282Z,238.50
2019-05-29T17:40:36.897Z,238.87
2019-05-29T17:43:05.466Z,233.03
2019-05-29T17:45:34.046Z,244.60
2019-05-29T17:48:02.648Z,232.43
2019-05-29T17:50:31.495Z,232.57
2019-05-29T17:53:00.052Z,236.93
2019-05-29T17:55:28.679Z,251.90
2019-05-29T17:57:57.238Z,231.23
2019-05-29T18:00:26.671Z,237.30
2019-05-29T18:02:55.396Z,236.57
2019-05-29T18:05:24.696Z,233.33
2019-05-29T18:07:53.418Z,233.97
2019-05-29T18:10:24.133Z,238.57
2019-05-29T18:12:53.086Z,265.73
2019-05-29T18:15:21.730Z,244.37
2019-05-29T18:17:50.433Z,242.47
2019-05-29T18:20:19.667Z,237.23
2019-05-29T18:22:48.116Z,239.93
2019-05-29T18:25:19.694Z,240.23
2019-05-29T18:28:36.472Z,233.73
2019-05-29T18:30:22.261Z,246.73
2019-05-29T18:32:59.928Z,225.40
2019-05-29T18:35:43.506Z,244.97
2019-05-29T18:38:13.705Z,244.50
2019-05-29T18:40:49.230Z,234.80
2019-05-29T18:43:21.025Z,248.20
2019-05-29T18:45:49.690Z,240.93
2019-05-29T18:48:18.336Z,241.80
2019-05-29T18:50:46.969Z,242.40
2019-05-29T18:53:15.660Z,245.57
2019-05-29T18:55:44.562Z,227.87
2019-05-29T18:58:13.287Z,249.27
2019-05-29T19:00:41.704Z,235.97
2019-05-29T19:03:10.313Z,235.97
2019-05-29T19:05:39.502Z,247.20
2019-05-29T19:08:08.913Z,254.27
2019-05-29T19:10:37.640Z,242.47
2019-05-29T19:13:08.054Z,242.87
2019-05-29T19:15:36.722Z,231.20
2019-05-29T19:18:05.371Z,244.73
2019-05-29T19:20:34.114Z,250.63
2019-05-29T19:23:02.886Z,236.83
2019-05-29T19:25:32.927Z,243.77
2019-05-29T19:28:01.748Z,233.63
2019-05-29T19:30:30.965Z,235.80
2019-05-29T19:32:59.857Z,234.00
2019-05-29T19:35:29.591Z,240.33
2019-05-29T19:38:00.254Z,238.97
2019-05-29T19:40:30.112Z,250.13
2019-05-29T19:42:59.127Z,237.77
2019-05-29T19:45:30.510Z,232.00
2019-05-29T19:47:59.435Z,232.00
2019-05-29T19:50:28.771Z,253.27
2019-05-29T19:52:59.714Z,234.53
2019-05-29T19:55:31.767Z,237.57
2019-05-29T19:57:59.443Z,234.70
2019-05-29T20:00:30.124Z,245.20
2019-05-29T20:02:59.083Z,233.13
2019-05-29T20:05:28.626Z,227.37
2019-05-29T20:07:57.335Z,238.57
2019-05-29T20:10:27.108Z,236.93
2019-05-29T20:12:55.944Z,222.27
2019-05-29T20:15:25.691Z,233.40
2019-05-29T20:17:54.419Z,230.10
2019-05-29T20:20:23.366Z,234.53
2019-05-29T20:22:52.031Z,237.83
2019-05-29T20:25:20.625Z,228.50
2019-05-29T20:27:49.358Z,228.10
2019-05-29T20:30:19.260Z,232.87
2019-05-29T20:32:48.059Z,228.27
2019-05-29T20:35:17.420Z,228.43
2019-05-29T20:37:46.555Z,233.73
2019-05-29T20:40:15.297Z,217.10
2019-05-29T20:42:44.165Z,222.97
2019-05-29T20:45:12.729Z,227.03
2019-05-29T20:47:42.110Z,228.10
2019-05-29T20:50:11.081Z,222.13
2019-05-29T20:52:39.792Z,233.10
2019-05-29T20:55:11.913Z,224.60
2019-05-29T20:57:42.039Z,215.27
2019-05-29T21:00:11.745Z,211.90
2019-05-29T21:02:40.835Z,217.63
2019-05-29T21:05:09.392Z,218.97
2019-05-29T21:07:38.815Z,225.40
2019-05-29T21:10:07.510Z,223.83
2019-05-29T21:12:37.376Z,228.73
2019-05-29T21:15:06.316Z,223.63
2019-05-29T21:17:37.769Z,219.93
2019-05-29T21:20:08.262Z,209.40
2019-05-29T21:22:36.987Z,207.17
2019-05-29T21:25:11.534Z,212.50
2019-05-29T21:27:40.812Z,222.73
2019-05-29T21:30:10.553Z,227.83
2019-05-29T21:32:55.773Z,207.87
2019-05-29T21:35:24.425Z,218.00
2019-05-29T21:37:53.114Z,215.10
2019-05-29T21:40:21.550Z,213.50
2019-05-29T21:42:50.053Z,220.90
2019-05-29T21:45:18.589Z,206.23
2019-05-29T21:47:47.330Z,205.57
2019-05-29T21:50:15.904Z,219.30
2019-05-29T21:52:45.475Z,208.47
2019-05-29T21:55:14.055Z,207.23
2019-05-29T21:57:46.433Z,212.60
2019-05-29T22:00:14.379Z,210.17
2019-05-29T22:02:44.377Z,211.83
2019-05-29T22:05:13.149Z,218.00
2019-05-29T22:07:42.785Z,212.40
2019-05-29T22:10:11.547Z,214.23
2019-05-29T22:12:40.140Z,215.03
2019-05-29T22:15:11.677Z,215.37
2019-05-29T22:17:40.138Z,210.57
2019-05-29T22:20:09.554Z,203.07
2019-05-29T22:22:38.307Z,205.13
2019-05-29T22:25:10.193Z,207.67
2019-05-29T22:27:38.619Z,209.30
2019-05-29T22:30:08.801Z,212.30
2019-05-29T22:32:37.217Z,207.67
2019-05-29T22:35:09.263Z,219.13
2019-05-29T22:37:37.729Z,208.33
2019-05-29T22:40:07.869Z,204.77
2019-05-29T22:42:36.363Z,205.17
2019-05-29T22:45:06.034Z,215.63
2019-05-29T22:47:34.455Z,211.37
2019-05-29T22:50:03.989Z,207.63
2019-05-29T22:52:32.485Z,205.53
2019-05-29T22:55:02.233Z,215.73
2019-05-29T22:57:30.819Z,208.63
2019-05-29T23:00:00.094Z,205.37
2019-05-29T23:02:28.668Z,217.27
2019-05-29T23:04:58.350Z,206.00
2019-05-29T23:07:27.119Z,207.50
2019-05-29T23:09:56.144Z,210.20
2019-05-29T23:12:24.736Z,198.43
2019-05-29T23:14:54.397Z,199.70
2019-05-29T23:17:23.063Z,209.03
2019-05-29T23:19:52.442Z,204.27
2019-05-29T23:22:24.531Z,206.00
2019-05-29T23:24:52.654Z,206.03
2019-05-29T23:27:21.251Z,219.67
2019-05-29T23:29:49.807Z,203.07
2019-05-29T23:32:18.218Z,207.20
2019-05-29T23:34:46.634Z,199.20
2019-05-29T23:37:15.223Z,206.13
2019-05-29T23:39:43.631Z,204.07
2019-05-29T23:42:12.053Z,200.97
2019-05-29T23:44:40.535Z,205.33
2019-05-29T23:47:09.382Z,204.63
2019-05-29T23:49:37.942Z,214.60
2019-05-29T23:52:06.420Z,203.17
2019-05-29T23:54:34.893Z,204.53
2019-05-29T23:57:04.172Z,200.67
2019-05-29T23:59:32.779Z,201.87
